sensor_id;sensor_type;location;lat;lon;timestamp;temperature;humidity
2849;DHT22;59355;52.416;13.412;2022-07-06T00:01:52;17.50;99.90
2849;DHT22;59355;52.416;13.412;2022-07-06T00:04:18;17.40;99.90
2849;DHT22;59355;52.416;13.412;2022-07-06T00:06:45;17.40;99.90
2849;DHT22;59355;52.416;13.412;2022-07-06T00:09:11;17.40;99.90
2849;DHT22;59355;52.416;13.412;2022-07-06T00:11:37;17.40;99.90
2849;DHT22;59355;52.416;13.412;2022-07-06T00:14:03;17.40;99.90
2849;DHT22;59355;52.416;13.412;2022-07-06T00:16:30;17.40;99.90
2849;DHT22;59355;52.416;13.412;2022-07-06T00:18:56;17.40;99.90
2849;DHT22;59355;52.416;13.412;2022-07-06T00:21:22;17.30;99.90
2849;DHT22;59355;52.416;13.412;2022-07-06T00:23:48;17.30;99.90
2849;DHT22;59355;52.416;13.412;2022-07-06T00:26:15;17.30;99.90
2849;DHT22;59355;52.416;13.412;2022-07-06T00:28:41;17.30;99.90
2849;DHT22;59355;52.416;13.412;2022-07-06T00:31:07;17.30;99.90
2849;DHT22;59355;52.416;13.412;2022-07-06T00:33:33;17.20;99.90
2849;DHT22;59355;52.416;13.412;2022-07-06T00:35:59;17.20;99.90
2849;DHT22;59355;52.416;13.412;2022-07-06T00:38:25;17.30;99.90
2849;DHT22;59355;52.416;13.412;2022-07-06T00:40:51;17.30;99.90
2849;DHT22;59355;52.416;13.412;2022-07-06T00:43:17;17.20;99.90
2849;DHT22;59355;52.416;13.412;2022-07-06T00:45:43;17.20;99.90
2849;DHT22;59355;52.416;13.412;2022-07-06T00:48:10;17.20;99.90
2849;DHT22;59355;52.416;13.412;2022-07-06T00:50:36;17.20;99.90
2849;DHT22;59355;52.416;13.412;2022-07-06T00:53:04;17.20;99.90
2849;DHT22;59355;52.416;13.412;2022-07-06T00:55:36;17.20;99.90
2849;DHT22;59355;52.416;13.412;2022-07-06T00:58:06;17.20;99.90
2849;DHT22;59355;52.416;13.412;2022-07-06T01:00:34;17.10;99.90
2849;DHT22;59355;52.416;13.412;2022-07-06T01:03:01;17.10;99.90
2849;DHT22;59355;52.416;13.412;2022-07-06T01:05:27;17.00;99.90
2849;DHT22;59355;52.416;13.412;2022-07-06T01:07:54;16.90;99.90
2849;DHT22;59355;52.416;13.412;2022-07-06T01:10:21;16.80;99.90
2849;DHT22;59355;52.416;13.412;2022-07-06T01:12:48;16.80;99.90
2849;DHT22;59355;52.416;13.412;2022-07-06T01:15:23;16.80;99.90
2849;DHT22;59355;52.416;13.412;2022-07-06T01:17:50;16.70;99.90
2849;DHT22;59355;52.416;13.412;2022-07-06T01:22:47;16.80;99.90
2849;DHT22;59355;52.416;13.412;2022-07-06T01:25:14;16.80;99.90
2849;DHT22;59355;52.416;13.412;2022-07-06T01:27:41;16.70;99.90
2849;DHT22;59355;52.416;13.412;2022-07-06T01:30:15;16.70;99.90
2849;DHT22;59355;52.416;13.412;2022-07-06T01:32:42;16.60;99.90
2849;DHT22;59355;52.416;13.412;2022-07-06T01:35:11;16.50;99.90
2849;DHT22;59355;52.416;13.412;2022-07-06T01:37:37;16.50;99.90
2849;DHT22;59355;52.416;13.412;2022-07-06T01:40:06;16.40;99.90
2849;DHT22;59355;52.416;13.412;2022-07-06T01:42:32;16.50;99.90
2849;DHT22;59355;52.416;13.412;2022-07-06T01:44:58;16.40;99.90
2849;DHT22;59355;52.416;13.412;2022-07-06T01:47:24;16.50;99.90
2849;DHT22;59355;52.416;13.412;2022-07-06T01:49:51;16.50;99.90
2849;DHT22;59355;52.416;13.412;2022-07-06T01:52:17;16.60;99.90
2849;DHT22;59355;52.416;13.412;2022-07-06T01:54:44;16.60;99.90
2849;DHT22;59355;52.416;13.412;2022-07-06T01:57:10;16.60;99.90
2849;DHT22;59355;52.416;13.412;2022-07-06T01:59:36;16.60;99.90
2849;DHT22;59355;52.416;13.412;2022-07-06T02:02:02;16.60;99.90
2849;DHT22;59355;52.416;13.412;2022-07-06T02:04:28;16.70;99.90
2849;DHT22;59355;52.416;13.412;2022-07-06T02:06:54;16.70;99.90
2849;DHT22;59355;52.416;13.412;2022-07-06T02:09:21;16.70;99.90
2849;DHT22;59355;52.416;13.412;2022-07-06T02:11:47;16.80;99.90
2849;DHT22;59355;52.416;13.412;2022-07-06T02:14:13;16.80;99.90
2849;DHT22;59355;52.416;13.412;2022-07-06T02:16:39;16.80;99.90
2849;DHT22;59355;52.416;13.412;2022-07-06T02:19:05;16.80;99.90
2849;DHT22;59355;52.416;13.412;2022-07-06T02:21:31;16.90;99.90
2849;DHT22;59355;52.416;13.412;2022-07-06T02:23:57;16.90;99.90
2849;DHT22;59355;52.416;13.412;2022-07-06T02:26:23;17.00;99.90
2849;DHT22;59355;52.416;13.412;2022-07-06T02:28:49;17.00;99.90
2849;DHT22;59355;52.416;13.412;2022-07-06T02:31:16;17.00;99.90
2849;DHT22;59355;52.416;13.412;2022-07-06T02:33:42;16.90;99.90
2849;DHT22;59355;52.416;13.412;2022-07-06T02:36:08;16.70;99.90
2849;DHT22;59355;52.416;13.412;2022-07-06T02:38:34;16.70;99.90
2849;DHT22;59355;52.416;13.412;2022-07-06T02:41:00;16.60;99.90
2849;DHT22;59355;52.416;13.412;2022-07-06T02:43:26;16.50;99.90
2849;DHT22;59355;52.416;13.412;2022-07-06T02:45:52;16.50;99.90
2849;DHT22;59355;52.416;13.412;2022-07-06T02:48:18;16.50;99.90
2849;DHT22;59355;52.416;13.412;2022-07-06T02:50:47;16.40;99.90
2849;DHT22;59355;52.416;13.412;2022-07-06T02:53:13;16.40;99.90
2849;DHT22;59355;52.416;13.412;2022-07-06T02:55:39;16.40;99.90
2849;DHT22;59355;52.416;13.412;2022-07-06T02:58:05;16.40;99.90
2849;DHT22;59355;52.416;13.412;2022-07-06T03:00:31;16.30;99.90
2849;DHT22;59355;52.416;13.412;2022-07-06T03:02:57;16.30;99.90
2849;DHT22;59355;52.416;13.412;2022-07-06T03:05:23;16.30;99.90
2849;DHT22;59355;52.416;13.412;2022-07-06T03:07:50;16.30;99.90
2849;DHT22;59355;52.416;13.412;2022-07-06T03:10:16;16.30;99.90
2849;DHT22;59355;52.416;13.412;2022-07-06T03:12:42;16.30;99.90
2849;DHT22;59355;52.416;13.412;2022-07-06T03:15:08;16.30;99.90
2849;DHT22;59355;52.416;13.412;2022-07-06T03:17:36;16.20;99.90
2849;DHT22;59355;52.416;13.412;2022-07-06T03:20:04;16.20;99.90
2849;DHT22;59355;52.416;13.412;2022-07-06T03:22:30;16.20;99.90
2849;DHT22;59355;52.416;13.412;2022-07-06T03:24:56;16.20;99.90
2849;DHT22;59355;52.416;13.412;2022-07-06T03:27:22;16.10;99.90
2849;DHT22;59355;52.416;13.412;2022-07-06T03:29:48;15.90;99.90
2849;DHT22;59355;52.416;13.412;2022-07-06T03:32:14;15.70;99.90
2849;DHT22;59355;52.416;13.412;2022-07-06T03:34:40;15.40;99.90
2849;DHT22;59355;52.416;13.412;2022-07-06T03:37:06;15.20;99.90
2849;DHT22;59355;52.416;13.412;2022-07-06T03:39:32;15.20;99.90
2849;DHT22;59355;52.416;13.412;2022-07-06T03:41:59;15.20;99.90
2849;DHT22;59355;52.416;13.412;2022-07-06T03:44:25;15.20;99.90
2849;DHT22;59355;52.416;13.412;2022-07-06T03:46:51;15.10;99.90
2849;DHT22;59355;52.416;13.412;2022-07-06T03:49:20;15.10;99.90
2849;DHT22;59355;52.416;13.412;2022-07-06T03:51:46;15.10;99.90
2849;DHT22;59355;52.416;13.412;2022-07-06T03:54:12;15.10;99.90
2849;DHT22;59355;52.416;13.412;2022-07-06T03:56:38;15.10;99.90
2849;DHT22;59355;52.416;13.412;2022-07-06T03:59:04;15.00;99.90
2849;DHT22;59355;52.416;13.412;2022-07-06T04:01:31;15.00;99.90
2849;DHT22;59355;52.416;13.412;2022-07-06T04:03:57;15.10;99.90
2849;DHT22;59355;52.416;13.412;2022-07-06T04:06:23;15.20;99.90
2849;DHT22;59355;52.416;13.412;2022-07-06T04:08:49;15.20;99.90
2849;DHT22;59355;52.416;13.412;2022-07-06T04:11:15;15.30;99.90
2849;DHT22;59355;52.416;13.412;2022-07-06T04:13:41;15.30;99.90
2849;DHT22;59355;52.416;13.412;2022-07-06T04:16:08;15.40;99.90
2849;DHT22;59355;52.416;13.412;2022-07-06T04:18:34;15.40;99.90
2849;DHT22;59355;52.416;13.412;2022-07-06T04:21:00;15.40;99.90
2849;DHT22;59355;52.416;13.412;2022-07-06T04:23:28;15.50;99.90
2849;DHT22;59355;52.416;13.412;2022-07-06T04:25:54;15.50;99.90
2849;DHT22;59355;52.416;13.412;2022-07-06T04:28:20;15.60;99.90
2849;DHT22;59355;52.416;13.412;2022-07-06T04:30:46;15.60;99.90
2849;DHT22;59355;52.416;13.412;2022-07-06T04:33:12;15.60;99.90
2849;DHT22;59355;52.416;13.412;2022-07-06T04:35:38;15.60;99.90
2849;DHT22;59355;52.416;13.412;2022-07-06T04:38:04;15.60;99.90
2849;DHT22;59355;52.416;13.412;2022-07-06T04:40:31;15.60;99.90
2849;DHT22;59355;52.416;13.412;2022-07-06T04:42:57;15.60;99.90
2849;DHT22;59355;52.416;13.412;2022-07-06T04:45:23;15.50;99.90
2849;DHT22;59355;52.416;13.412;2022-07-06T04:47:49;15.50;99.90
2849;DHT22;59355;52.416;13.412;2022-07-06T04:50:15;15.60;99.90
2849;DHT22;59355;52.416;13.412;2022-07-06T04:52:41;15.60;99.90
2849;DHT22;59355;52.416;13.412;2022-07-06T04:55:07;15.70;99.90
2849;DHT22;59355;52.416;13.412;2022-07-06T04:57:34;15.90;99.90
2849;DHT22;59355;52.416;13.412;2022-07-06T05:00:01;16.00;99.90
2849;DHT22;59355;52.416;13.412;2022-07-06T05:02:27;16.20;99.90
2849;DHT22;59355;52.416;13.412;2022-07-06T05:04:53;16.30;99.90
2849;DHT22;59355;52.416;13.412;2022-07-06T05:07:19;16.30;99.90
2849;DHT22;59355;52.416;13.412;2022-07-06T05:09:45;16.30;99.90
2849;DHT22;59355;52.416;13.412;2022-07-06T05:12:11;16.30;99.90
2849;DHT22;59355;52.416;13.412;2022-07-06T05:14:37;16.20;99.90
2849;DHT22;59355;52.416;13.412;2022-07-06T05:17:03;16.20;99.90
2849;DHT22;59355;52.416;13.412;2022-07-06T05:19:29;16.20;99.90
2849;DHT22;59355;52.416;13.412;2022-07-06T05:21:55;16.10;99.90
2849;DHT22;59355;52.416;13.412;2022-07-06T05:24:21;16.10;99.90
2849;DHT22;59355;52.416;13.412;2022-07-06T05:26:47;16.00;99.90
2849;DHT22;59355;52.416;13.412;2022-07-06T05:29:13;16.00;99.90
2849;DHT22;59355;52.416;13.412;2022-07-06T05:31:39;15.90;99.90
2849;DHT22;59355;52.416;13.412;2022-07-06T05:34:05;15.90;99.90
2849;DHT22;59355;52.416;13.412;2022-07-06T05:36:32;16.00;99.90
2849;DHT22;59355;52.416;13.412;2022-07-06T05:38:58;16.10;99.90
2849;DHT22;59355;52.416;13.412;2022-07-06T05:41:24;16.30;99.90
2849;DHT22;59355;52.416;13.412;2022-07-06T05:43:50;16.30;99.90
2849;DHT22;59355;52.416;13.412;2022-07-06T05:46:16;16.40;99.90
2849;DHT22;59355;52.416;13.412;2022-07-06T05:48:42;16.40;99.90
2849;DHT22;59355;52.416;13.412;2022-07-06T05:51:27;16.40;99.90
2849;DHT22;59355;52.416;13.412;2022-07-06T05:53:53;16.40;99.90
2849;DHT22;59355;52.416;13.412;2022-07-06T05:56:19;16.40;99.90
2849;DHT22;59355;52.416;13.412;2022-07-06T05:58:45;16.50;99.90
2849;DHT22;59355;52.416;13.412;2022-07-06T06:01:11;16.50;99.90
2849;DHT22;59355;52.416;13.412;2022-07-06T06:03:37;16.40;99.90
2849;DHT22;59355;52.416;13.412;2022-07-06T06:06:04;16.50;99.90
2849;DHT22;59355;52.416;13.412;2022-07-06T06:08:30;16.70;99.90
2849;DHT22;59355;52.416;13.412;2022-07-06T06:10:56;16.70;99.90
2849;DHT22;59355;52.416;13.412;2022-07-06T06:13:22;16.70;99.90
2849;DHT22;59355;52.416;13.412;2022-07-06T06:15:48;16.60;99.90
2849;DHT22;59355;52.416;13.412;2022-07-06T06:18:14;16.70;99.90
2849;DHT22;59355;52.416;13.412;2022-07-06T06:20:43;16.70;99.90
2849;DHT22;59355;52.416;13.412;2022-07-06T06:23:09;16.80;99.90
2849;DHT22;59355;52.416;13.412;2022-07-06T06:25:37;16.90;99.90
2849;DHT22;59355;52.416;13.412;2022-07-06T06:28:05;16.90;99.90
2849;DHT22;59355;52.416;13.412;2022-07-06T06:30:32;16.90;99.90
2849;DHT22;59355;52.416;13.412;2022-07-06T06:33:24;16.80;99.90
2849;DHT22;59355;52.416;13.412;2022-07-06T06:35:51;16.90;99.90
2849;DHT22;59355;52.416;13.412;2022-07-06T06:38:20;16.90;99.90
2849;DHT22;59355;52.416;13.412;2022-07-06T06:40:46;17.00;99.90
2849;DHT22;59355;52.416;13.412;2022-07-06T06:43:12;17.20;99.90
2849;DHT22;59355;52.416;13.412;2022-07-06T06:45:39;17.20;99.90
2849;DHT22;59355;52.416;13.412;2022-07-06T06:48:05;17.00;99.90
2849;DHT22;59355;52.416;13.412;2022-07-06T06:50:31;17.10;99.90
2849;DHT22;59355;52.416;13.412;2022-07-06T06:52:57;17.10;99.90
2849;DHT22;59355;52.416;13.412;2022-07-06T06:55:23;17.40;99.90
2849;DHT22;59355;52.416;13.412;2022-07-06T06:57:49;17.50;99.90
2849;DHT22;59355;52.416;13.412;2022-07-06T07:00:15;17.50;99.90
2849;DHT22;59355;52.416;13.412;2022-07-06T07:02:42;17.50;99.90
2849;DHT22;59355;52.416;13.412;2022-07-06T07:05:08;17.60;99.90
2849;DHT22;59355;52.416;13.412;2022-07-06T07:07:34;17.60;99.90
2849;DHT22;59355;52.416;13.412;2022-07-06T07:10:00;17.40;99.90
2849;DHT22;59355;52.416;13.412;2022-07-06T07:12:26;17.30;99.90
2849;DHT22;59355;52.416;13.412;2022-07-06T07:14:52;17.40;99.90
2849;DHT22;59355;52.416;13.412;2022-07-06T07:17:19;17.50;99.90
2849;DHT22;59355;52.416;13.412;2022-07-06T07:19:45;17.50;99.90
2849;DHT22;59355;52.416;13.412;2022-07-06T07:22:11;17.60;99.90
2849;DHT22;59355;52.416;13.412;2022-07-06T07:24:37;17.70;99.90
2849;DHT22;59355;52.416;13.412;2022-07-06T07:27:03;18.10;99.90
2849;DHT22;59355;52.416;13.412;2022-07-06T07:29:31;18.00;99.90
2849;DHT22;59355;52.416;13.412;2022-07-06T07:31:57;18.00;99.90
2849;DHT22;59355;52.416;13.412;2022-07-06T07:34:23;18.00;99.90
2849;DHT22;59355;52.416;13.412;2022-07-06T07:36:49;17.90;99.90
2849;DHT22;59355;52.416;13.412;2022-07-06T07:39:15;18.00;99.90
2849;DHT22;59355;52.416;13.412;2022-07-06T07:41:41;18.20;99.90
2849;DHT22;59355;52.416;13.412;2022-07-06T07:44:08;18.20;99.90
2849;DHT22;59355;52.416;13.412;2022-07-06T07:46:34;18.20;99.90
2849;DHT22;59355;52.416;13.412;2022-07-06T07:49:00;18.10;99.90
2849;DHT22;59355;52.416;13.412;2022-07-06T07:51:26;18.00;99.90
2849;DHT22;59355;52.416;13.412;2022-07-06T07:53:52;18.00;99.90
2849;DHT22;59355;52.416;13.412;2022-07-06T07:56:18;18.00;99.90
2849;DHT22;59355;52.416;13.412;2022-07-06T07:58:44;18.10;99.90
2849;DHT22;59355;52.416;13.412;2022-07-06T08:01:10;18.20;99.90
2849;DHT22;59355;52.416;13.412;2022-07-06T08:03:36;18.40;99.90
2849;DHT22;59355;52.416;13.412;2022-07-06T08:06:02;18.50;87.50
2849;DHT22;59355;52.416;13.412;2022-07-06T08:08:28;18.30;77.90
2849;DHT22;59355;52.416;13.412;2022-07-06T08:10:54;18.40;88.60
2849;DHT22;59355;52.416;13.412;2022-07-06T08:13:20;18.40;93.90
2849;DHT22;59355;52.416;13.412;2022-07-06T08:15:47;18.50;99.90
2849;DHT22;59355;52.416;13.412;2022-07-06T08:18:13;18.70;88.90
2849;DHT22;59355;52.416;13.412;2022-07-06T08:20:39;18.90;90.80
2849;DHT22;59355;52.416;13.412;2022-07-06T08:23:06;18.80;94.20
2849;DHT22;59355;52.416;13.412;2022-07-06T08:25:32;18.80;99.90
2849;DHT22;59355;52.416;13.412;2022-07-06T08:27:58;18.70;99.90
2849;DHT22;59355;52.416;13.412;2022-07-06T08:30:24;18.70;99.90
2849;DHT22;59355;52.416;13.412;2022-07-06T08:32:50;18.80;99.90
2849;DHT22;59355;52.416;13.412;2022-07-06T08:35:16;18.70;99.90
2849;DHT22;59355;52.416;13.412;2022-07-06T08:37:42;18.70;99.90
2849;DHT22;59355;52.416;13.412;2022-07-06T08:40:09;19.00;99.90
2849;DHT22;59355;52.416;13.412;2022-07-06T08:42:35;19.10;99.00
2849;DHT22;59355;52.416;13.412;2022-07-06T08:45:04;19.00;99.90
2849;DHT22;59355;52.416;13.412;2022-07-06T08:47:31;19.10;92.20
2849;DHT22;59355;52.416;13.412;2022-07-06T08:49:57;19.10;89.20
2849;DHT22;59355;52.416;13.412;2022-07-06T08:52:24;19.00;88.90
2849;DHT22;59355;52.416;13.412;2022-07-06T08:54:51;18.90;94.60
2849;DHT22;59355;52.416;13.412;2022-07-06T08:57:18;18.90;94.40
2849;DHT22;59355;52.416;13.412;2022-07-06T08:59:44;19.00;90.40
2849;DHT22;59355;52.416;13.412;2022-07-06T09:02:10;19.30;82.20
2849;DHT22;59355;52.416;13.412;2022-07-06T09:04:37;19.40;72.80
2849;DHT22;59355;52.416;13.412;2022-07-06T09:07:04;19.40;73.90
2849;DHT22;59355;52.416;13.412;2022-07-06T09:09:30;19.50;71.50
2849;DHT22;59355;52.416;13.412;2022-07-06T09:11:57;19.40;69.60
2849;DHT22;59355;52.416;13.412;2022-07-06T09:14:23;19.10;71.20
2849;DHT22;59355;52.416;13.412;2022-07-06T09:17:02;18.80;71.50
2849;DHT22;59355;52.416;13.412;2022-07-06T09:19:31;18.60;75.00
2849;DHT22;59355;52.416;13.412;2022-07-06T09:21:57;18.40;76.60
2849;DHT22;59355;52.416;13.412;2022-07-06T09:24:23;18.50;77.00
2849;DHT22;59355;52.416;13.412;2022-07-06T09:26:55;18.30;76.60
2849;DHT22;59355;52.416;13.412;2022-07-06T09:29:29;18.30;77.80
2849;DHT22;59355;52.416;13.412;2022-07-06T09:31:56;18.30;80.20
2849;DHT22;59355;52.416;13.412;2022-07-06T09:34:23;18.30;75.90
2849;DHT22;59355;52.416;13.412;2022-07-06T09:36:50;18.40;66.00
2849;DHT22;59355;52.416;13.412;2022-07-06T09:39:24;18.60;66.00
2849;DHT22;59355;52.416;13.412;2022-07-06T09:41:55;18.80;63.90
2849;DHT22;59355;52.416;13.412;2022-07-06T09:44:25;18.80;61.90
2849;DHT22;59355;52.416;13.412;2022-07-06T09:46:52;18.90;59.50
2849;DHT22;59355;52.416;13.412;2022-07-06T09:49:19;18.80;59.70
2849;DHT22;59355;52.416;13.412;2022-07-06T09:51:47;18.80;59.50
2849;DHT22;59355;52.416;13.412;2022-07-06T09:54:15;19.00;60.50
2849;DHT22;59355;52.416;13.412;2022-07-06T09:56:44;19.10;60.00
2849;DHT22;59355;52.416;13.412;2022-07-06T09:59:15;19.30;58.40
2849;DHT22;59355;52.416;13.412;2022-07-06T10:01:42;19.20;58.40
2849;DHT22;59355;52.416;13.412;2022-07-06T10:04:09;19.50;58.00
2849;DHT22;59355;52.416;13.412;2022-07-06T10:06:36;19.70;57.90
2849;DHT22;59355;52.416;13.412;2022-07-06T10:09:05;19.70;57.30
2849;DHT22;59355;52.416;13.412;2022-07-06T10:11:34;19.60;59.00
2849;DHT22;59355;52.416;13.412;2022-07-06T10:14:04;19.40;60.90
2849;DHT22;59355;52.416;13.412;2022-07-06T10:16:31;19.30;61.00
2849;DHT22;59355;52.416;13.412;2022-07-06T10:18:58;19.30;61.30
2849;DHT22;59355;52.416;13.412;2022-07-06T10:21:27;19.20;60.80
2849;DHT22;59355;52.416;13.412;2022-07-06T10:23:53;19.20;60.40
2849;DHT22;59355;52.416;13.412;2022-07-06T10:26:21;19.10;59.40
2849;DHT22;59355;52.416;13.412;2022-07-06T10:28:48;19.20;58.10
2849;DHT22;59355;52.416;13.412;2022-07-06T10:31:18;19.20;58.70
2849;DHT22;59355;52.416;13.412;2022-07-06T10:33:46;19.30;58.20
2849;DHT22;59355;52.416;13.412;2022-07-06T10:36:12;19.20;59.00
2849;DHT22;59355;52.416;13.412;2022-07-06T10:38:39;19.10;58.30
2849;DHT22;59355;52.416;13.412;2022-07-06T10:41:07;19.30;58.10
2849;DHT22;59355;52.416;13.412;2022-07-06T10:43:38;19.50;57.40
2849;DHT22;59355;52.416;13.412;2022-07-06T10:48:35;19.90;57.10
2849;DHT22;59355;52.416;13.412;2022-07-06T10:51:01;20.00;57.70
2849;DHT22;59355;52.416;13.412;2022-07-06T10:53:40;20.30;57.00
2849;DHT22;59355;52.416;13.412;2022-07-06T10:56:10;20.30;54.50
2849;DHT22;59355;52.416;13.412;2022-07-06T10:58:48;20.10;55.80
2849;DHT22;59355;52.416;13.412;2022-07-06T11:01:15;20.00;56.10
2849;DHT22;59355;52.416;13.412;2022-07-06T11:03:48;20.00;56.70
2849;DHT22;59355;52.416;13.412;2022-07-06T11:06:15;20.30;57.70
2849;DHT22;59355;52.416;13.412;2022-07-06T11:08:50;20.40;56.70
2849;DHT22;59355;52.416;13.412;2022-07-06T11:11:23;20.20;56.30
2849;DHT22;59355;52.416;13.412;2022-07-06T11:13:55;20.30;55.80
2849;DHT22;59355;52.416;13.412;2022-07-06T11:16:23;20.50;54.50
2849;DHT22;59355;52.416;13.412;2022-07-06T11:19:23;20.70;53.20
2849;DHT22;59355;52.416;13.412;2022-07-06T11:21:52;20.50;54.80
2849;DHT22;59355;52.416;13.412;2022-07-06T11:24:33;20.30;55.40
2849;DHT22;59355;52.416;13.412;2022-07-06T11:27:00;20.30;56.00
2849;DHT22;59355;52.416;13.412;2022-07-06T11:29:28;20.40;56.40
2849;DHT22;59355;52.416;13.412;2022-07-06T11:31:57;20.30;56.60
2849;DHT22;59355;52.416;13.412;2022-07-06T11:34:25;20.00;57.30
2849;DHT22;59355;52.416;13.412;2022-07-06T11:37:05;19.90;58.20
2849;DHT22;59355;52.416;13.412;2022-07-06T11:39:38;19.90;58.60
2849;DHT22;59355;52.416;13.412;2022-07-06T11:42:08;19.70;58.60
2849;DHT22;59355;52.416;13.412;2022-07-06T11:44:35;19.70;58.70
2849;DHT22;59355;52.416;13.412;2022-07-06T11:47:02;19.90;58.30
2849;DHT22;59355;52.416;13.412;2022-07-06T11:49:30;20.20;57.70
2849;DHT22;59355;52.416;13.412;2022-07-06T11:51:57;20.40;57.20
2849;DHT22;59355;52.416;13.412;2022-07-06T11:54:23;20.50;57.00
2849;DHT22;59355;52.416;13.412;2022-07-06T11:56:52;20.50;56.00
2849;DHT22;59355;52.416;13.412;2022-07-06T11:59:24;20.50;56.50
2849;DHT22;59355;52.416;13.412;2022-07-06T12:01:58;20.60;57.00
2849;DHT22;59355;52.416;13.412;2022-07-06T12:04:25;20.80;57.30
2849;DHT22;59355;52.416;13.412;2022-07-06T12:06:51;21.10;56.40
2849;DHT22;59355;52.416;13.412;2022-07-06T12:09:17;21.10;55.20
2849;DHT22;59355;52.416;13.412;2022-07-06T12:11:45;21.00;52.40
2849;DHT22;59355;52.416;13.412;2022-07-06T12:14:19;21.10;53.10
2849;DHT22;59355;52.416;13.412;2022-07-06T12:16:48;20.70;53.90
2849;DHT22;59355;52.416;13.412;2022-07-06T12:19:15;20.60;54.70
2849;DHT22;59355;52.416;13.412;2022-07-06T12:21:45;20.50;55.80
2849;DHT22;59355;52.416;13.412;2022-07-06T12:24:21;20.40;56.40
2849;DHT22;59355;52.416;13.412;2022-07-06T12:26:47;20.20;57.00
2849;DHT22;59355;52.416;13.412;2022-07-06T12:29:14;20.20;57.30
2849;DHT22;59355;52.416;13.412;2022-07-06T12:31:42;20.10;57.70
2849;DHT22;59355;52.416;13.412;2022-07-06T12:34:29;20.10;57.90
2849;DHT22;59355;52.416;13.412;2022-07-06T12:37:06;20.30;58.30
2849;DHT22;59355;52.416;13.412;2022-07-06T12:39:44;20.30;58.00
2849;DHT22;59355;52.416;13.412;2022-07-06T12:42:10;20.60;58.20
2849;DHT22;59355;52.416;13.412;2022-07-06T12:44:44;20.60;57.20
2849;DHT22;59355;52.416;13.412;2022-07-06T12:47:12;20.40;57.80
2849;DHT22;59355;52.416;13.412;2022-07-06T12:49:39;20.70;58.20
2849;DHT22;59355;52.416;13.412;2022-07-06T12:52:15;20.90;57.80
2849;DHT22;59355;52.416;13.412;2022-07-06T12:54:45;21.20;57.60
2849;DHT22;59355;52.416;13.412;2022-07-06T12:57:19;20.70;57.80
2849;DHT22;59355;52.416;13.412;2022-07-06T12:59:48;20.90;57.00
2849;DHT22;59355;52.416;13.412;2022-07-06T13:02:31;20.80;57.80
2849;DHT22;59355;52.416;13.412;2022-07-06T13:04:59;21.00;58.60
2849;DHT22;59355;52.416;13.412;2022-07-06T13:07:26;20.90;57.30
2849;DHT22;59355;52.416;13.412;2022-07-06T13:09:54;21.00;57.80
2849;DHT22;59355;52.416;13.412;2022-07-06T13:12:21;21.20;57.20
2849;DHT22;59355;52.416;13.412;2022-07-06T13:14:48;21.10;56.90
2849;DHT22;59355;52.416;13.412;2022-07-06T13:17:14;21.00;57.30
2849;DHT22;59355;52.416;13.412;2022-07-06T13:19:40;21.10;56.70
2849;DHT22;59355;52.416;13.412;2022-07-06T13:22:07;20.90;55.80
2849;DHT22;59355;52.416;13.412;2022-07-06T13:24:33;21.00;57.10
2849;DHT22;59355;52.416;13.412;2022-07-06T13:26:59;21.00;56.00
2849;DHT22;59355;52.416;13.412;2022-07-06T13:29:25;21.00;56.50
2849;DHT22;59355;52.416;13.412;2022-07-06T13:31:51;21.10;56.90
2849;DHT22;59355;52.416;13.412;2022-07-06T13:34:17;21.20;55.90
2849;DHT22;59355;52.416;13.412;2022-07-06T13:36:43;21.20;56.60
2849;DHT22;59355;52.416;13.412;2022-07-06T13:39:09;21.20;56.30
2849;DHT22;59355;52.416;13.412;2022-07-06T13:41:36;21.20;55.80
2849;DHT22;59355;52.416;13.412;2022-07-06T13:44:02;21.20;56.00
2849;DHT22;59355;52.416;13.412;2022-07-06T13:46:29;21.50;55.30
2849;DHT22;59355;52.416;13.412;2022-07-06T13:48:56;21.50;54.50
2849;DHT22;59355;52.416;13.412;2022-07-06T13:51:26;21.30;55.00
2849;DHT22;59355;52.416;13.412;2022-07-06T13:53:54;21.20;55.10
2849;DHT22;59355;52.416;13.412;2022-07-06T13:56:20;20.90;55.40
2849;DHT22;59355;52.416;13.412;2022-07-06T13:58:46;20.90;56.30
2849;DHT22;59355;52.416;13.412;2022-07-06T14:01:12;20.80;55.70
2849;DHT22;59355;52.416;13.412;2022-07-06T14:03:39;20.60;56.00
2849;DHT22;59355;52.416;13.412;2022-07-06T14:06:05;20.50;56.50
2849;DHT22;59355;52.416;13.412;2022-07-06T14:08:36;20.40;56.50
2849;DHT22;59355;52.416;13.412;2022-07-06T14:11:03;20.40;57.00
2849;DHT22;59355;52.416;13.412;2022-07-06T14:13:29;20.60;56.80
2849;DHT22;59355;52.416;13.412;2022-07-06T14:15:56;20.80;56.60
2849;DHT22;59355;52.416;13.412;2022-07-06T14:18:23;20.80;56.10
2849;DHT22;59355;52.416;13.412;2022-07-06T14:20:50;20.80;55.80
2849;DHT22;59355;52.416;13.412;2022-07-06T14:23:17;20.90;56.20
2849;DHT22;59355;52.416;13.412;2022-07-06T14:25:44;21.00;56.10
2849;DHT22;59355;52.416;13.412;2022-07-06T14:28:10;21.20;56.60
2849;DHT22;59355;52.416;13.412;2022-07-06T14:30:40;21.10;55.20
2849;DHT22;59355;52.416;13.412;2022-07-06T14:33:07;21.10;55.10
2849;DHT22;59355;52.416;13.412;2022-07-06T14:35:36;21.00;55.30
2849;DHT22;59355;52.416;13.412;2022-07-06T14:38:03;20.90;55.20
2849;DHT22;59355;52.416;13.412;2022-07-06T14:40:30;20.80;55.30
2849;DHT22;59355;52.416;13.412;2022-07-06T14:42:57;20.60;55.40
2849;DHT22;59355;52.416;13.412;2022-07-06T14:45:24;20.60;55.60
2849;DHT22;59355;52.416;13.412;2022-07-06T14:47:50;20.50;55.90
2849;DHT22;59355;52.416;13.412;2022-07-06T14:50:17;20.30;55.60
2849;DHT22;59355;52.416;13.412;2022-07-06T14:52:46;20.20;55.90
2849;DHT22;59355;52.416;13.412;2022-07-06T14:55:12;20.10;56.30
2849;DHT22;59355;52.416;13.412;2022-07-06T14:57:38;20.10;56.70
2849;DHT22;59355;52.416;13.412;2022-07-06T15:00:05;20.10;57.00
2849;DHT22;59355;52.416;13.412;2022-07-06T15:02:31;20.00;57.30
2849;DHT22;59355;52.416;13.412;2022-07-06T15:04:57;20.10;58.30
2849;DHT22;59355;52.416;13.412;2022-07-06T15:07:23;19.90;58.10
2849;DHT22;59355;52.416;13.412;2022-07-06T15:09:49;19.80;58.50
2849;DHT22;59355;52.416;13.412;2022-07-06T15:12:16;19.70;58.70
2849;DHT22;59355;52.416;13.412;2022-07-06T15:14:42;19.70;58.70
2849;DHT22;59355;52.416;13.412;2022-07-06T15:17:08;19.70;58.90
2849;DHT22;59355;52.416;13.412;2022-07-06T15:19:34;19.70;59.10
2849;DHT22;59355;52.416;13.412;2022-07-06T15:22:00;19.70;59.10
2849;DHT22;59355;52.416;13.412;2022-07-06T15:24:27;19.70;59.20
2849;DHT22;59355;52.416;13.412;2022-07-06T15:26:53;19.70;59.40
2849;DHT22;59355;52.416;13.412;2022-07-06T15:29:19;19.70;59.60
2849;DHT22;59355;52.416;13.412;2022-07-06T15:31:45;19.70;59.50
2849;DHT22;59355;52.416;13.412;2022-07-06T15:34:11;19.60;59.50
2849;DHT22;59355;52.416;13.412;2022-07-06T15:36:37;19.60;60.00